createdAt,value
2022-12-23T00:00:21.701Z,5.83
2022-12-23T00:02:49.760Z,5.86
2022-12-23T00:05:18.074Z,5.86
2022-12-23T00:07:46.246Z,5.86
2022-12-23T00:10:14.259Z,5.87
2022-12-23T00:13:01.256Z,5.87
2022-12-23T00:15:29.244Z,5.89
2022-12-23T00:17:57.533Z,5.84
2022-12-23T00:20:25.533Z,5.83
2022-12-23T00:23:08.435Z,5.87
2022-12-23T00:25:45.026Z,5.83
2022-12-23T00:28:16.554Z,5.84
2022-12-23T00:30:48.489Z,5.86
2022-12-23T00:33:18.120Z,5.87
2022-12-23T00:35:46.841Z,5.87
2022-12-23T00:38:15.172Z,5.87
2022-12-23T00:41:00.976Z,5.91
2022-12-23T00:43:30.374Z,5.90
2022-12-23T00:45:58.462Z,5.89
2022-12-23T00:48:49.336Z,5.90
2022-12-23T00:51:17.343Z,5.91
2022-12-23T00:53:45.340Z,5.94
2022-12-23T00:56:13.342Z,5.93
2022-12-23T00:58:42.702Z,5.93
2022-12-23T01:01:28.596Z,5.91
2022-12-23T01:04:14.298Z,5.93
2022-12-23T01:06:42.334Z,5.93
2022-12-23T01:09:10.424Z,5.94
2022-12-23T01:11:38.554Z,5.93
2022-12-23T01:14:09.311Z,5.90
2022-12-23T01:16:38.079Z,5.89
2022-12-23T01:19:06.593Z,5.86
2022-12-23T01:21:34.788Z,5.86
2022-12-23T01:24:02.828Z,5.83
2022-12-23T01:26:30.823Z,5.84
2022-12-23T01:28:59.505Z,5.84
2022-12-23T01:31:29.315Z,5.84
2022-12-23T01:33:57.540Z,5.87
2022-12-23T01:36:25.628Z,5.89
2022-12-23T01:38:53.746Z,5.89
2022-12-23T01:41:38.641Z,5.89
2022-12-23T01:44:40.061Z,5.90
2022-12-23T01:47:12.023Z,5.91
2022-12-23T01:49:40.266Z,5.89
2022-12-23T01:52:08.411Z,5.86
2022-12-23T01:54:37.148Z,5.80
2022-12-23T01:57:05.289Z,5.74
2022-12-23T01:59:51.036Z,5.77
2022-12-23T02:02:38.945Z,5.73
2022-12-23T02:05:07.426Z,5.73
2022-12-23T02:07:53.676Z,5.71
2022-12-23T02:10:21.914Z,5.70
2022-12-23T02:12:53.373Z,5.69
2022-12-23T02:15:49.390Z,5.66
2022-12-23T02:18:35.139Z,5.67
2022-12-23T02:21:12.387Z,5.66
2022-12-23T02:23:59.284Z,5.62
2022-12-23T02:27:01.339Z,5.59
2022-12-23T02:29:58.113Z,5.59
2022-12-23T02:32:31.075Z,5.59
2022-12-23T02:35:06.080Z,5.59
2022-12-23T02:37:36.712Z,5.59
2022-12-23T02:40:10.016Z,5.57
2022-12-23T02:42:39.834Z,5.59
2022-12-23T02:45:10.881Z,5.62
2022-12-23T02:47:42.283Z,5.63
2022-12-23T02:50:13.084Z,5.66
2022-12-23T02:52:42.851Z,5.66
2022-12-23T02:55:15.668Z,5.67
2022-12-23T02:57:46.810Z,5.67
2022-12-23T03:00:15.995Z,5.67
2022-12-23T03:02:45.667Z,5.67
2022-12-23T03:05:28.457Z,5.70
2022-12-23T03:07:59.475Z,5.70
2022-12-23T03:10:34.591Z,5.70
2022-12-23T03:13:10.148Z,5.74
2022-12-23T03:15:42.561Z,5.73
2022-12-23T03:18:17.866Z,5.71
2022-12-23T03:20:52.276Z,5.73
2022-12-23T03:23:24.555Z,5.71
2022-12-23T03:25:55.203Z,5.74
2022-12-23T03:28:29.541Z,5.74
2022-12-23T03:30:58.780Z,5.77
2022-12-23T03:33:30.900Z,5.78
2022-12-23T03:36:01.731Z,5.80
2022-12-23T03:38:30.814Z,5.82
2022-12-23T03:41:02.808Z,5.84
2022-12-23T03:43:34.524Z,5.84
2022-12-23T03:46:05.962Z,5.84
2022-12-23T03:48:37.450Z,5.86
2022-12-23T03:51:10.879Z,5.84
2022-12-23T03:53:40.457Z,5.86
2022-12-23T03:56:11.376Z,5.84
2022-12-23T03:58:43.619Z,5.83
2022-12-23T04:01:12.404Z,5.86
2022-12-23T04:03:45.973Z,5.87
2022-12-23T04:06:17.079Z,5.87
2022-12-23T04:08:45.690Z,5.86
2022-12-23T04:11:13.856Z,5.89
2022-12-23T04:13:42.314Z,5.91
2022-12-23T04:16:11.197Z,5.91
2022-12-23T04:18:39.314Z,5.93
2022-12-23T04:21:08.705Z,5.93
2022-12-23T04:23:36.951Z,5.97
2022-12-23T04:26:05.374Z,5.98
2022-12-23T04:28:33.355Z,6.00
2022-12-23T04:31:01.442Z,6.01
2022-12-23T04:33:29.544Z,6.03
2022-12-23T04:36:00.229Z,6.08
2022-12-23T04:38:29.656Z,6.15
2022-12-23T04:40:57.694Z,6.15
2022-12-23T04:43:25.759Z,6.20
2022-12-23T04:45:53.861Z,6.18
2022-12-23T04:48:22.039Z,6.24
2022-12-23T04:50:50.096Z,6.24
2022-12-23T04:53:18.646Z,6.24
2022-12-23T04:55:52.375Z,6.28
2022-12-23T04:58:22.256Z,6.28
2022-12-23T05:00:50.483Z,6.32
2022-12-23T05:03:19.047Z,6.36
2022-12-23T05:05:47.243Z,6.39
2022-12-23T05:08:15.345Z,6.45
2022-12-23T05:10:43.376Z,6.48
2022-12-23T05:13:12.833Z,6.49
2022-12-23T05:15:41.295Z,6.55
2022-12-23T05:18:09.458Z,6.55
2022-12-23T05:20:37.655Z,6.55
2022-12-23T05:23:05.710Z,6.61
2022-12-23T05:25:34.249Z,6.61
2022-12-23T05:28:02.300Z,6.65
2022-12-23T05:30:32.081Z,6.68
2022-12-23T05:33:00.431Z,6.69
2022-12-23T05:35:29.266Z,6.72
2022-12-23T05:37:57.654Z,6.75
2022-12-23T05:40:30.445Z,6.75
2022-12-23T05:43:00.578Z,6.75
2022-12-23T05:45:30.892Z,6.76
2022-12-23T05:48:00.265Z,6.75
2022-12-23T05:50:28.380Z,6.77
2022-12-23T05:52:57.756Z,6.80
2022-12-23T05:55:25.769Z,6.82
2022-12-23T05:57:54.845Z,6.82
2022-12-23T06:00:23.097Z,6.86
2022-12-23T06:02:53.749Z,6.86
2022-12-23T06:05:23.883Z,6.86
2022-12-23T06:07:52.153Z,6.89
2022-12-23T06:10:20.400Z,6.92
2022-12-23T06:12:48.383Z,6.94
2022-12-23T06:15:16.780Z,6.96
2022-12-23T06:17:44.847Z,6.99
2022-12-23T06:20:20.045Z,6.99
2022-12-23T06:22:50.212Z,6.99
2022-12-23T06:25:18.362Z,6.99
2022-12-23T06:27:46.637Z,7.01
2022-12-23T06:30:15.224Z,7.00
2022-12-23T06:32:43.240Z,7.01
2022-12-23T06:35:11.333Z,7.08
2022-12-23T06:37:39.467Z,7.11
2022-12-23T06:40:10.386Z,7.13
2022-12-23T06:42:38.614Z,7.14
2022-12-23T06:45:07.566Z,7.15
2022-12-23T06:47:35.613Z,7.18
2022-12-23T06:50:04.795Z,7.21
2022-12-23T06:52:32.817Z,7.20
2022-12-23T06:55:00.867Z,7.21
2022-12-23T06:57:30.665Z,7.21
2022-12-23T06:59:58.832Z,7.23
2022-12-23T07:02:27.106Z,7.25
2022-12-23T07:04:55.355Z,7.25
2022-12-23T07:07:23.561Z,7.25
2022-12-23T07:09:51.678Z,7.18
2022-12-23T07:12:19.849Z,7.14
2022-12-23T07:14:49.268Z,7.10
2022-12-23T07:17:17.851Z,7.03
2022-12-23T07:19:45.890Z,7.00
2022-12-23T07:22:13.955Z,6.94
2022-12-23T07:24:41.953Z,6.93
2022-12-23T07:27:10.849Z,6.92
2022-12-23T07:29:38.833Z,6.86
2022-12-23T07:32:08.319Z,6.83
2022-12-23T07:34:36.481Z,6.80
2022-12-23T07:37:04.656Z,6.77
2022-12-23T07:39:32.675Z,6.73
2022-12-23T07:42:33.905Z,6.73
2022-12-23T07:44:48.850Z,6.71
2022-12-23T07:47:18.215Z,6.69
2022-12-23T07:49:46.202Z,6.69
2022-12-23T07:52:14.191Z,6.72
2022-12-23T07:54:42.251Z,6.69
2022-12-23T07:57:10.455Z,6.71
2022-12-23T07:59:38.415Z,6.71
2022-12-23T08:02:06.787Z,6.71
2022-12-23T08:04:40.984Z,6.73
2022-12-23T08:07:12.384Z,6.75
2022-12-23T08:09:40.637Z,6.75
2022-12-23T08:12:08.757Z,6.76
2022-12-23T08:14:37.104Z,6.79
2022-12-23T08:17:05.301Z,6.83
2022-12-23T08:19:33.501Z,6.84
2022-12-23T08:22:03.222Z,6.84
2022-12-23T08:24:31.388Z,6.86
2022-12-23T08:26:59.614Z,6.90
2022-12-23T08:29:32.540Z,6.89
2022-12-23T08:32:04.065Z,6.90
2022-12-23T08:34:32.085Z,6.92
2022-12-23T08:37:00.126Z,6.93
2022-12-23T08:39:29.853Z,6.90
2022-12-23T08:41:57.923Z,6.94
2022-12-23T08:44:28.079Z,6.97
2022-12-23T08:46:59.302Z,6.96
2022-12-23T08:49:28.613Z,6.99
2022-12-23T08:51:56.673Z,7.00
2022-12-23T08:54:25.456Z,7.03
2022-12-23T08:56:55.221Z,7.04
2022-12-23T08:59:23.200Z,7.07
2022-12-23T09:01:51.756Z,7.05
2022-12-23T09:04:20.105Z,7.11
2022-12-23T09:06:48.162Z,7.11
2022-12-23T09:09:17.219Z,7.10
2022-12-23T09:11:45.280Z,7.08
2022-12-23T09:14:14.978Z,7.08
2022-12-23T09:16:43.096Z,7.08
2022-12-23T09:19:11.126Z,7.07
2022-12-23T09:21:39.268Z,7.10
2022-12-23T09:24:07.685Z,7.07
2022-12-23T09:26:35.742Z,7.10
2022-12-23T09:29:04.135Z,7.04
2022-12-23T09:31:37.417Z,7.01
2022-12-23T09:34:06.564Z,7.01
2022-12-23T09:36:34.892Z,6.96
2022-12-23T09:39:02.927Z,6.94
2022-12-23T09:41:36.430Z,6.96
2022-12-23T09:44:15.999Z,6.94
2022-12-23T09:46:48.961Z,6.96
2022-12-23T09:49:18.694Z,6.96
2022-12-23T09:51:48.027Z,6.90
2022-12-23T09:54:19.128Z,6.89
2022-12-23T09:56:50.562Z,6.92
2022-12-23T09:59:29.059Z,6.89
2022-12-23T10:02:02.016Z,6.89
2022-12-23T10:04:35.125Z,6.92
2022-12-23T10:07:23.556Z,6.92
2022-12-23T10:09:52.698Z,6.94
2022-12-23T10:12:40.234Z,6.94
2022-12-23T10:15:20.727Z,6.99
2022-12-23T10:17:52.064Z,7.04
2022-12-23T10:20:29.168Z,7.07
2022-12-23T10:22:58.407Z,7.08
2022-12-23T10:25:30.222Z,7.14
2022-12-23T10:27:58.310Z,7.21
2022-12-23T10:30:56.856Z,7.31
2022-12-23T10:33:21.160Z,7.45
2022-12-23T10:35:57.845Z,7.58
2022-12-23T10:38:47.197Z,7.68
2022-12-23T10:41:26.521Z,7.72
2022-12-23T10:44:11.133Z,7.79
2022-12-23T10:46:43.613Z,7.81
2022-12-23T10:49:20.512Z,7.79
2022-12-23T10:51:51.051Z,7.75
2022-12-23T10:54:22.397Z,7.71
2022-12-23T10:56:50.756Z,7.69
2022-12-23T10:59:24.585Z,7.66
2022-12-23T11:01:56.054Z,7.61
2022-12-23T11:04:32.088Z,7.58
2022-12-23T11:07:41.594Z,7.51
2022-12-23T11:09:52.141Z,7.50
2022-12-23T11:12:23.266Z,7.51
2022-12-23T11:14:53.235Z,7.50
2022-12-23T11:17:23.075Z,7.45
2022-12-23T11:20:09.091Z,7.41
2022-12-23T11:22:38.364Z,7.41
2022-12-23T11:25:26.775Z,7.40
2022-12-23T11:27:57.874Z,7.40
2022-12-23T11:30:26.344Z,7.35
2022-12-23T11:32:54.517Z,7.34
2022-12-23T11:35:28.764Z,7.32
2022-12-23T11:37:57.729Z,7.31
2022-12-23T11:40:28.039Z,7.28
2022-12-23T11:42:59.011Z,7.25
2022-12-23T11:45:28.672Z,7.24
2022-12-23T11:47:57.207Z,7.25
2022-12-23T11:50:35.594Z,7.21
2022-12-23T11:53:14.851Z,7.21
2022-12-23T11:55:48.244Z,7.21
2022-12-23T11:58:20.384Z,7.23
2022-12-23T12:00:56.445Z,7.24
2022-12-23T12:03:28.441Z,7.24
2022-12-23T12:06:00.594Z,7.20
2022-12-23T12:08:32.854Z,7.23
2022-12-23T12:11:03.918Z,7.28
2022-12-23T12:13:34.216Z,7.32
2022-12-23T12:16:11.656Z,7.38
2022-12-23T12:18:41.109Z,7.44
2022-12-23T12:21:15.003Z,7.52
2022-12-23T12:23:45.464Z,7.55
2022-12-23T12:26:17.033Z,7.58
2022-12-23T12:28:47.156Z,7.58
2022-12-23T12:31:19.728Z,7.65
2022-12-23T12:33:50.655Z,7.65
2022-12-23T12:36:29.624Z,7.68
2022-12-23T12:38:58.985Z,7.69
2022-12-23T12:41:31.827Z,7.66
2022-12-23T12:44:14.086Z,7.66
2022-12-23T12:46:44.919Z,7.59
2022-12-23T12:49:16.550Z,7.56
2022-12-23T12:51:50.303Z,7.52
2022-12-23T12:54:24.686Z,7.45
2022-12-23T12:56:54.688Z,7.47
2022-12-23T12:59:24.706Z,7.42
2022-12-23T13:02:05.207Z,7.38
2022-12-23T13:04:47.884Z,7.32
2022-12-23T13:07:18.750Z,7.27
2022-12-23T13:09:55.192Z,7.20
2022-12-23T13:12:27.239Z,7.21
2022-12-23T13:15:01.331Z,7.23
2022-12-23T13:17:33.556Z,7.21
2022-12-23T13:20:09.866Z,7.23
2022-12-23T13:22:39.926Z,7.27
2022-12-23T13:25:13.961Z,7.25
2022-12-23T13:27:45.997Z,7.21
2022-12-23T13:30:15.137Z,7.17
2022-12-23T13:33:01.855Z,7.15
2022-12-23T13:35:48.365Z,7.17
2022-12-23T13:38:29.954Z,7.17
2022-12-23T13:41:05.841Z,7.15
2022-12-23T13:43:41.573Z,7.14
2022-12-23T13:46:15.657Z,7.13
2022-12-23T13:48:49.417Z,7.04
2022-12-23T13:51:21.775Z,7.05
2022-12-23T13:54:02.427Z,7.07
2022-12-23T13:56:40.919Z,7.04
2022-12-23T13:59:10.822Z,7.01
2022-12-23T14:01:45.995Z,6.97
2022-12-23T14:04:32.146Z,7.00
2022-12-23T14:07:01.755Z,6.97
2022-12-23T14:09:33.603Z,6.96
2022-12-23T14:12:20.254Z,6.94
2022-12-23T14:15:13.463Z,6.93
2022-12-23T14:17:48.310Z,6.89
2022-12-23T14:20:26.315Z,6.87
2022-12-23T14:23:01.958Z,6.82
2022-12-23T14:25:38.471Z,6.83
2022-12-23T14:28:14.555Z,6.84
2022-12-23T14:30:45.735Z,6.87
2022-12-23T14:33:23.470Z,6.84
2022-12-23T14:35:57.199Z,6.83
2022-12-23T14:38:35.299Z,6.84
2022-12-23T14:41:38.291Z,6.79
2022-12-23T14:44:20.026Z,6.76
2022-12-23T14:46:57.503Z,6.75
2022-12-23T14:49:41.235Z,6.69
2022-12-23T14:52:44.391Z,6.63
2022-12-23T14:55:41.913Z,6.62
2022-12-23T14:58:40.717Z,6.57
2022-12-23T15:01:13.606Z,6.61
2022-12-23T15:03:44.751Z,6.62
2022-12-23T15:06:17.343Z,6.61
2022-12-23T15:08:47.796Z,6.63
2022-12-23T15:11:24.164Z,6.61
2022-12-23T15:13:55.121Z,6.57
2022-12-23T15:16:30.680Z,6.57
2022-12-23T15:19:02.122Z,6.50
2022-12-23T15:21:32.913Z,6.52
2022-12-23T15:24:01.336Z,6.49
2022-12-23T15:26:31.805Z,6.48
2022-12-23T15:29:01.717Z,6.48
2022-12-23T15:31:32.853Z,6.45
2022-12-23T15:34:03.990Z,6.41
2022-12-23T15:36:36.479Z,6.35
2022-12-23T15:39:09.866Z,6.31
2022-12-23T15:41:42.808Z,6.28
2022-12-23T15:44:15.313Z,6.25
2022-12-23T15:46:43.477Z,6.22
2022-12-23T15:49:12.322Z,6.21
2022-12-23T15:54:36.760Z,6.15
2022-12-23T15:57:05.824Z,6.17
2022-12-23T15:59:37.475Z,6.17
2022-12-23T16:02:49.817Z,6.18
2022-12-23T16:05:06.357Z,6.20
2022-12-23T16:07:36.504Z,6.21
2022-12-23T16:10:13.374Z,6.22
2022-12-23T16:12:42.481Z,6.21
2022-12-23T16:15:28.337Z,6.22
2022-12-23T16:18:14.297Z,6.21
2022-12-23T16:20:44.132Z,6.20
2022-12-23T16:23:13.118Z,6.20
2022-12-23T16:25:46.859Z,6.22
2022-12-23T16:28:23.061Z,6.20
2022-12-23T16:30:53.803Z,6.22
2022-12-23T16:33:36.491Z,6.22
2022-12-23T16:36:18.928Z,6.24
2022-12-23T16:38:47.062Z,6.22
2022-12-23T16:41:15.463Z,6.24
2022-12-23T16:43:51.617Z,6.22
2022-12-23T16:46:23.723Z,6.24
2022-12-23T16:48:53.556Z,6.24
2022-12-23T16:51:24.536Z,6.22
2022-12-23T16:53:55.039Z,6.22
2022-12-23T16:56:25.200Z,6.24
2022-12-23T16:58:53.217Z,6.21
2022-12-23T17:01:24.209Z,6.24
2022-12-23T17:03:52.636Z,6.21
2022-12-23T17:06:21.351Z,6.22
2022-12-23T17:08:49.934Z,6.20
2022-12-23T17:11:19.678Z,6.20
2022-12-23T17:13:48.134Z,6.18
2022-12-23T17:16:19.875Z,6.14
2022-12-23T17:18:49.727Z,6.14
2022-12-23T17:21:21.453Z,6.15
2022-12-23T17:23:49.607Z,6.14
2022-12-23T17:26:17.808Z,6.11
2022-12-23T17:28:45.841Z,6.13
2022-12-23T17:31:16.304Z,6.10
2022-12-23T17:33:48.673Z,6.08
2022-12-23T17:36:17.625Z,6.10
2022-12-23T17:38:45.654Z,6.08
2022-12-23T17:41:17.601Z,6.08
2022-12-23T17:43:45.925Z,6.05
2022-12-23T17:46:14.382Z,6.03
2022-12-23T17:48:42.652Z,6.01
2022-12-23T17:51:14.838Z,6.00
2022-12-23T17:53:43.003Z,6.00
2022-12-23T17:56:13.701Z,5.98
2022-12-23T17:58:41.855Z,5.98
2022-12-23T18:01:17.562Z,5.95
2022-12-23T18:03:45.786Z,5.95
2022-12-23T18:06:17.062Z,5.94
2022-12-23T18:08:45.244Z,5.93
2022-12-23T18:11:18.345Z,5.94
2022-12-23T18:13:46.679Z,5.90
2022-12-23T18:16:14.688Z,5.93
2022-12-23T18:18:46.691Z,5.91
2022-12-23T18:21:21.652Z,5.93
2022-12-23T18:23:49.716Z,5.90
2022-12-23T18:26:17.963Z,5.87
2022-12-23T18:28:46.169Z,5.87
2022-12-23T18:31:16.123Z,5.84
2022-12-23T18:33:44.392Z,5.87
2022-12-23T18:36:22.851Z,5.86
2022-12-23T18:38:52.093Z,5.84
2022-12-23T18:41:20.381Z,5.86
2022-12-23T18:43:48.666Z,5.84
2022-12-23T18:46:16.972Z,5.84
2022-12-23T18:48:45.026Z,5.87
2022-12-23T18:51:15.428Z,5.84
2022-12-23T18:53:45.007Z,5.84
2022-12-23T18:56:27.933Z,5.86
2022-12-23T18:58:57.339Z,5.87
2022-12-23T19:01:25.471Z,5.84
2022-12-23T19:03:53.527Z,5.84
2022-12-23T19:06:21.496Z,5.86
2022-12-23T19:08:51.054Z,5.83
2022-12-23T19:11:21.237Z,5.82
2022-12-23T19:13:49.347Z,5.84
2022-12-23T19:16:19.133Z,5.84
2022-12-23T19:18:48.465Z,5.82
2022-12-23T19:21:17.426Z,5.83
2022-12-23T19:23:45.740Z,5.78
2022-12-23T19:26:15.913Z,5.83
2022-12-23T19:28:43.945Z,5.78
2022-12-23T19:31:13.213Z,5.82
2022-12-23T19:33:42.452Z,5.80
2022-12-23T19:36:11.386Z,5.80
2022-12-23T19:38:39.567Z,5.78
2022-12-23T19:41:08.193Z,5.80
2022-12-23T19:43:38.721Z,5.77
2022-12-23T19:46:08.861Z,5.78
2022-12-23T19:48:37.303Z,5.76
2022-12-23T19:51:07.648Z,5.73
2022-12-23T19:53:36.379Z,5.74
2022-12-23T19:56:06.771Z,5.73
2022-12-23T19:58:38.160Z,5.73
2022-12-23T20:01:10.646Z,5.76
2022-12-23T20:03:39.228Z,5.74
2022-12-23T20:06:08.888Z,5.74
2022-12-23T20:08:37.031Z,5.76
2022-12-23T20:11:09.838Z,5.76
2022-12-23T20:13:39.570Z,5.76
2022-12-23T20:16:08.429Z,5.76
2022-12-23T20:18:37.148Z,5.74
2022-12-23T20:21:07.001Z,5.73
2022-12-23T20:23:35.805Z,5.76
2022-12-23T20:26:04.859Z,5.74
2022-12-23T20:28:33.440Z,5.76
2022-12-23T20:31:08.128Z,5.74
2022-12-23T20:33:36.203Z,5.76
2022-12-23T20:36:04.650Z,5.73
2022-12-23T20:38:35.040Z,5.71
2022-12-23T20:41:03.825Z,5.70
2022-12-23T20:43:31.979Z,5.70
2022-12-23T20:46:00.055Z,5.73
2022-12-23T20:48:34.053Z,5.71
2022-12-23T20:51:05.599Z,5.70
2022-12-23T20:53:33.879Z,5.73
2022-12-23T20:56:02.358Z,5.71
2022-12-23T20:58:48.152Z,5.71
2022-12-23T21:01:16.217Z,5.71
2022-12-23T21:03:45.604Z,5.71
2022-12-23T21:06:13.579Z,5.73
2022-12-23T21:08:43.013Z,5.70
2022-12-23T21:11:11.607Z,5.74
2022-12-23T21:13:41.230Z,5.76
2022-12-23T21:16:11.843Z,5.73
2022-12-23T21:18:44.022Z,5.73
2022-12-23T21:21:13.691Z,5.73
2022-12-23T21:23:42.740Z,5.74
2022-12-23T21:26:13.656Z,5.73
2022-12-23T21:28:42.891Z,5.73
2022-12-23T21:31:11.168Z,5.71
2022-12-23T21:33:40.896Z,5.73
2022-12-23T21:36:11.768Z,5.71
2022-12-23T21:38:45.558Z,5.73
2022-12-23T21:41:17.530Z,5.71
2022-12-23T21:43:45.652Z,5.71
2022-12-23T21:46:16.154Z,5.73
2022-12-23T21:48:44.711Z,5.71
2022-12-23T21:51:14.599Z,5.76
2022-12-23T21:53:48.488Z,5.74
2022-12-23T21:56:17.790Z,5.73
2022-12-23T21:58:46.692Z,5.76
2022-12-23T22:01:16.347Z,5.76
2022-12-23T22:03:45.492Z,5.73
2022-12-23T22:06:15.216Z,5.73
2022-12-23T22:08:44.641Z,5.74
2022-12-23T22:11:14.436Z,5.77
2022-12-23T22:13:43.274Z,5.74
2022-12-23T22:16:12.314Z,5.74
2022-12-23T22:18:41.104Z,5.78
2022-12-23T22:21:10.993Z,5.74
2022-12-23T22:23:39.310Z,5.76
2022-12-23T22:26:09.807Z,5.78
2022-12-23T22:28:38.694Z,5.74
2022-12-23T22:31:08.629Z,5.76
2022-12-23T22:33:36.759Z,5.76
2022-12-23T22:36:05.261Z,5.76
2022-12-23T22:38:33.406Z,5.74
2022-12-23T22:41:01.470Z,5.74
2022-12-23T22:43:30.810Z,5.73
2022-12-23T22:46:00.341Z,5.74
2022-12-23T22:48:29.715Z,5.76
2022-12-23T22:51:03.015Z,5.73
2022-12-23T22:53:31.863Z,5.70
2022-12-23T22:56:00.248Z,5.69
2022-12-23T22:58:29.473Z,5.70
2022-12-23T23:00:59.079Z,5.70
2022-12-23T23:03:27.764Z,5.71
2022-12-23T23:06:00.135Z,5.70
2022-12-23T23:08:29.336Z,5.70
2022-12-23T23:10:58.234Z,5.66
2022-12-23T23:13:26.871Z,5.66
2022-12-23T23:15:57.200Z,5.65
2022-12-23T23:18:27.031Z,5.65
2022-12-23T23:20:55.235Z,5.65
2022-12-23T23:23:23.507Z,5.65
2022-12-23T23:25:51.728Z,5.62
2022-12-23T23:28:19.919Z,5.62
2022-12-23T23:30:48.473Z,5.60
2022-12-23T23:33:17.238Z,5.59
2022-12-23T23:35:46.686Z,5.63
2022-12-23T23:38:15.900Z,5.60
2022-12-23T23:40:43.947Z,5.60
2022-12-23T23:43:11.994Z,5.59
2022-12-23T23:45:40.575Z,5.57
2022-12-23T23:48:09.660Z,5.55
2022-12-23T23:50:37.818Z,5.57
2022-12-23T23:53:07.440Z,5.53
2022-12-23T23:55:35.441Z,5.55
2022-12-23T23:58:03.480Z,5.53
